Historique des mesures à Cassis (13260), France
Quotidien Résumé Juin 12, 2017 Unités:  US    Métrique   Métrique/US
« Précédent (Jour)
Suivant (Jour) »
Quotidien Hebdomadaire Mensuel Annuel Période au choix
  Maximum: Minimum: Moyenne:
Température: 32 °F 72.1 °F 76.6 °F
Point de rosée: 32 °F 55.9 °F 62.2 °F
Humidité: Humidity % 46 % 58 %
Vitesse du vent: WindSpeedKMH mph 0.0 mph 2.3 mph
Rafales: WindSpeedGustKMH mph - -
Vent:- - SE
Pression: 0 in 29.8 in -
Précipitations: 0 in    
Historical Graphs
 
 
Mesures pour : Juin 12, 2017
Heure Temperature Point de rosée Pression Vent Vitesse du vent Rafales Humidité Pluie (par heure) Conditions
32 °F 32 °F 0 in Calm     Humidity % 0 in SoftwareType W/m2
00:10 73.2 °F 57 °F 29.9 in North 1.8 mph 3.5 mph 57 % 0 in open2300-1.11 W/m2
01:10 72.9 °F 56.1 °F 29.9 in North 1.8 mph 3.2 mph 56 % 0 in open2300-1.11 W/m2
02:10 72.9 °F 56.1 °F 29.9 in ENE 6.1 mph 6.1 mph 56 % 0 in open2300-1.11 W/m2
03:10 73 °F 56.3 °F 29.9 in Calm     56 % 0 in open2300-1.11 W/m2
04:11 72.1 °F 55.9 °F 29.9 in Calm     57 % 0 in open2300-1.11 W/m2
05:10 73.2 °F 57 °F 29.9 in Calm   6.8 mph 57 % 0 in open2300-1.11 W/m2
06:10 72.1 °F 56.5 °F 29.9 in NNW 3.5 mph 3.5 mph 58 % 0 in open2300-1.11 W/m2
07:10 72.7 °F 57 °F 29.9 in ENE 3.2 mph 3.2 mph 58 % 0 in open2300-1.11 W/m2
08:10 77.9 °F 59.9 °F 29.9 in SE 4.7 mph 7.2 mph 54 % 0 in open2300-1.11 W/m2
09:10 75.6 °F 60.3 °F 29.9 in ESE 1.1 mph 1.1 mph 59 % 0 in open2300-1.11 W/m2
10:10 78.4 °F 66.6 °F 29.9 in SSE 9.3 mph 9.3 mph 67 % 0 in open2300-1.11 W/m2
11:11 84.2 °F 69.3 °F 29.9 in SSE 3.2 mph 7.6 mph 61 % 0 in open2300-1.11 W/m2
12:10 86.5 °F 70 °F 29.9 in SSE 5.5 mph 5.5 mph 58 % 0 in open2300-1.11 W/m2
13:10 87.8 °F 68.5 °F 29.9 in Calm   5.0 mph 53 % 0 in open2300-1.11 W/m2
14:10 88.9 °F 65.3 °F 29.9 in SE 2.1 mph 8.7 mph 46 % 0 in open2300-1.11 W/m2
16:10 86.5 °F 69.4 °F 29.9 in SE 5.8 mph 5.8 mph 57 % 0 in open2300-1.11 W/m2
17:10 84.7 °F 69.8 °F 29.9 in SE 5.0 mph 5.5 mph 61 % 0 in open2300-1.11 W/m2
18:11 82.6 °F 69.1 °F 29.8 in Calm   7.2 mph 64 % 0 in open2300-1.11 W/m2
19:10 81.1 °F 69.1 °F 29.8 in SE 2.9 mph 2.9 mph 67 % 0 in open2300-1.11 W/m2
20:10 79.3 °F 68.7 °F 29.8 in Calm     70 % 0 in open2300-1.11 W/m2
21:10 77.9 °F 68.2 °F 29.8 in Calm     72 % 0 in open2300-1.11 W/m2
22:10 76.8 °F 67.8 °F 29.8 in Calm     74 % 0 in open2300-1.11 W/m2
23:10 75.7 °F 67.6 °F 29.9 in Calm     76 % 0 in open2300-1.11 W/m2
Observations météo à CASSIS
WU-History script by Weather Underground - 1 mb